createdAt,value
2018-01-24T00:02:14.592Z,98136.27
2018-01-24T00:04:43.049Z,98134.28
2018-01-24T00:07:10.930Z,98136.64
2018-01-24T00:09:38.474Z,98132.77
2018-01-24T00:12:06.345Z,98134.02
2018-01-24T00:14:33.850Z,98127.80
2018-01-24T00:17:01.356Z,98124.25
2018-01-24T00:19:28.922Z,98125.55
2018-01-24T00:21:56.422Z,98134.54
2018-01-24T00:24:24.192Z,98130.52
2018-01-24T00:26:51.684Z,98124.95
2018-01-24T00:29:19.176Z,98128.03
2018-01-24T00:31:46.701Z,98125.27
2018-01-24T00:34:14.195Z,98118.39
2018-01-24T00:36:41.934Z,98114.90
2018-01-24T00:39:09.455Z,98121.83
2018-01-24T00:41:36.981Z,98133.37
2018-01-24T00:44:04.518Z,98127.29
2018-01-24T00:46:32.020Z,98126.26
2018-01-24T00:48:59.693Z,98129.86
2018-01-24T00:51:27.195Z,98134.13
2018-01-24T00:53:54.690Z,98146.09
2018-01-24T00:56:22.347Z,98141.13
2018-01-24T00:58:49.861Z,98147.22
2018-01-24T01:01:17.728Z,98137.72
2018-01-24T01:03:45.229Z,98147.92
2018-01-24T01:06:12.730Z,98130.36
2018-01-24T01:08:40.256Z,98125.52
2018-01-24T01:11:07.760Z,98122.98
2018-01-24T01:13:35.539Z,98122.94
2018-01-24T01:16:03.096Z,98119.76
2018-01-24T01:18:30.596Z,98123.73
2018-01-24T01:20:58.145Z,98113.49
2018-01-24T01:23:25.641Z,98113.63
2018-01-24T01:25:53.181Z,98120.46
2018-01-24T01:28:20.689Z,98108.39
2018-01-24T01:30:48.184Z,98115.31
2018-01-24T01:33:15.720Z,98116.39
2018-01-24T01:35:43.247Z,98117.32
2018-01-24T01:38:11.013Z,98115.22
2018-01-24T01:40:38.514Z,98119.94
2018-01-24T01:43:06.027Z,98127.52
2018-01-24T01:45:33.700Z,98126.83
2018-01-24T01:48:01.212Z,98129.39
2018-01-24T01:50:28.732Z,98124.63
2018-01-24T01:52:56.232Z,98124.29
2018-01-24T01:55:23.738Z,98125.41
2018-01-24T01:57:51.264Z,98126.82
2018-01-24T02:00:18.758Z,98124.52
2018-01-24T02:02:46.316Z,98124.23
2018-01-24T02:05:13.820Z,98120.77
2018-01-24T02:07:41.317Z,98124.83
2018-01-24T02:10:08.841Z,98113.59
2018-01-24T02:12:36.342Z,98110.67
2018-01-24T02:15:04.193Z,98112.41
2018-01-24T02:17:31.714Z,98117.74
2018-01-24T02:19:59.220Z,98113.14
2018-01-24T02:22:26.740Z,98110.61
2018-01-24T02:24:54.245Z,98114.98
2018-01-24T02:27:21.776Z,98108.29
2018-01-24T02:29:49.280Z,98105.45
2018-01-24T02:32:16.776Z,98100.98
2018-01-24T02:34:44.300Z,98102.38
2018-01-24T02:37:11.806Z,98102.80
2018-01-24T02:39:39.552Z,98108.45
2018-01-24T02:42:07.054Z,98104.74
2018-01-24T02:44:34.596Z,98102.77
2018-01-24T02:47:03.078Z,98098.95
2018-01-24T02:49:30.580Z,98105.94
2018-01-24T02:51:58.110Z,98095.95
2018-01-24T02:54:25.647Z,98101.02
2018-01-24T02:56:53.144Z,98094.89
2018-01-24T02:59:20.714Z,98095.43
2018-01-24T03:01:48.302Z,98089.91
2018-01-24T03:04:15.960Z,98091.19
2018-01-24T03:06:43.456Z,98097.45
2018-01-24T03:09:11.006Z,98091.45
2018-01-24T03:11:38.565Z,98085.28
2018-01-24T03:14:06.126Z,98084.07
2018-01-24T03:16:33.695Z,98081.41
2018-01-24T03:19:01.242Z,98085.89
2018-01-24T03:21:28.740Z,98088.21
2018-01-24T03:23:56.269Z,98089.42
2018-01-24T03:26:23.920Z,98089.16
2018-01-24T03:28:51.772Z,98083.80
2018-01-24T03:31:19.268Z,98086.23
2018-01-24T03:33:46.772Z,98088.48
2018-01-24T03:36:14.304Z,98088.17
2018-01-24T03:38:41.809Z,98087.27
2018-01-24T03:41:09.445Z,98084.29
2018-01-24T03:43:36.947Z,98085.20
2018-01-24T03:46:04.498Z,98080.09
2018-01-24T03:48:32.024Z,98078.03
2018-01-24T03:50:59.538Z,98074.95
2018-01-24T03:53:27.089Z,98075.98
2018-01-24T03:55:54.629Z,98077.23
2018-01-24T03:58:22.197Z,98086.39
2018-01-24T04:00:49.751Z,98101.91
2018-01-24T04:03:17.245Z,98091.04
2018-01-24T04:05:44.968Z,98095.56
2018-01-24T04:08:12.464Z,98088.44
2018-01-24T04:10:39.963Z,98090.70
2018-01-24T04:13:07.485Z,98086.50
2018-01-24T04:15:35.102Z,98082.61
2018-01-24T04:18:02.664Z,98084.59
2018-01-24T04:20:30.221Z,98082.27
2018-01-24T04:22:57.720Z,98077.61
2018-01-24T04:25:25.243Z,98080.84
2018-01-24T04:27:52.813Z,98078.06
2018-01-24T04:30:20.368Z,98086.66
2018-01-24T04:32:48.048Z,98084.88
2018-01-24T04:35:15.542Z,98080.23
2018-01-24T04:37:43.080Z,98079.01
2018-01-24T04:40:10.591Z,98076.97
2018-01-24T04:42:38.151Z,98072.64
2018-01-24T04:45:05.734Z,98076.27
2018-01-24T04:47:33.271Z,98081.80
2018-01-24T04:50:00.850Z,98087.02
2018-01-24T04:52:28.351Z,98074.69
2018-01-24T04:54:55.872Z,98074.95
2018-01-24T04:57:23.380Z,98076.16
2018-01-24T04:59:50.877Z,98076.02
2018-01-24T05:02:18.401Z,98084.88
2018-01-24T05:04:46.112Z,98074.20
2018-01-24T05:07:13.664Z,98074.55
2018-01-24T05:09:41.199Z,98076.92
2018-01-24T05:12:08.692Z,98072.23
2018-01-24T05:14:36.237Z,98080.77
2018-01-24T05:17:03.733Z,98084.92
2018-01-24T05:19:31.268Z,98079.98
2018-01-24T05:21:58.790Z,98083.13
2018-01-24T05:24:26.292Z,98075.58
2018-01-24T05:26:53.827Z,98082.53
2018-01-24T05:29:21.333Z,98087.92
2018-01-24T05:31:48.853Z,98076.66
2018-01-24T05:34:16.381Z,98089.44
2018-01-24T05:36:43.876Z,98083.39
2018-01-24T05:39:11.410Z,98088.28
2018-01-24T05:41:38.910Z,98079.13
2018-01-24T05:44:06.799Z,98080.20
2018-01-24T05:46:34.296Z,98076.66
2018-01-24T05:49:02.760Z,98083.30
2018-01-24T05:51:30.281Z,98088.03
2018-01-24T05:53:57.781Z,98087.25
2018-01-24T05:56:25.811Z,98082.35
2018-01-24T05:58:53.316Z,98080.50
2018-01-24T06:01:20.863Z,98077.70
2018-01-24T06:03:48.407Z,98069.39
2018-01-24T06:06:15.900Z,98072.92
2018-01-24T06:08:43.420Z,98066.75
2018-01-24T06:11:10.916Z,98075.08
2018-01-24T06:13:38.429Z,98073.25
2018-01-24T06:16:05.951Z,98071.24
2018-01-24T06:18:33.456Z,98069.45
2018-01-24T06:21:01.132Z,98077.28
2018-01-24T06:23:28.690Z,98075.44
2018-01-24T06:25:56.190Z,98073.48
2018-01-24T06:28:23.811Z,98067.81
2018-01-24T06:30:51.367Z,98067.23
2018-01-24T06:33:19.131Z,98065.71
2018-01-24T06:35:46.628Z,98064.98
2018-01-24T06:38:14.148Z,98070.02
2018-01-24T06:40:41.706Z,98070.07
2018-01-24T06:43:09.210Z,98065.02
2018-01-24T06:45:36.750Z,98068.92
2018-01-24T06:48:04.281Z,98065.97
2018-01-24T06:50:31.777Z,98067.28
2018-01-24T06:52:59.305Z,98064.45
2018-01-24T06:55:26.804Z,98066.18
2018-01-24T06:57:54.519Z,98074.77
2018-01-24T07:00:22.536Z,98066.16
2018-01-24T07:02:50.044Z,98066.61
2018-01-24T07:05:17.568Z,98062.39
2018-01-24T07:07:45.077Z,98058.13
2018-01-24T07:10:12.605Z,98052.70
2018-01-24T07:12:51.828Z,98053.95
2018-01-24T07:15:19.414Z,98054.85
2018-01-24T07:17:46.916Z,98056.87
2018-01-24T07:20:14.428Z,98050.09
2018-01-24T07:22:41.987Z,98047.70
2018-01-24T07:25:09.553Z,98052.49
2018-01-24T07:27:37.105Z,98051.75
2018-01-24T07:30:04.596Z,98046.07
2018-01-24T07:32:32.098Z,98038.74
2018-01-24T07:34:59.618Z,98042.65
2018-01-24T07:37:27.116Z,98039.53
2018-01-24T07:39:54.728Z,98038.91
2018-01-24T07:42:22.255Z,98041.55
2018-01-24T07:44:49.753Z,98039.51
2018-01-24T07:47:18.296Z,98032.98
2018-01-24T07:49:45.802Z,98029.72
2018-01-24T07:52:13.618Z,98021.38
2018-01-24T07:54:41.109Z,98026.53
2018-01-24T07:57:08.615Z,98023.78
2018-01-24T07:59:36.437Z,98021.77
2018-01-24T08:02:03.957Z,98017.63
2018-01-24T08:04:31.603Z,98017.64
2018-01-24T08:06:59.102Z,98012.88
2018-01-24T08:09:26.634Z,98007.52
2018-01-24T08:11:54.194Z,98005.05
2018-01-24T08:14:21.697Z,98000.80
2018-01-24T08:16:49.414Z,98007.70
2018-01-24T08:19:16.917Z,98005.78
2018-01-24T08:21:44.430Z,98005.66
2018-01-24T08:24:11.954Z,98010.23
2018-01-24T08:26:39.452Z,98013.26
2018-01-24T08:29:07.007Z,98014.75
2018-01-24T08:31:34.507Z,98014.14
2018-01-24T08:34:02.021Z,98008.62
2018-01-24T08:36:29.580Z,98005.40
2018-01-24T08:38:57.076Z,98006.86
2018-01-24T08:41:24.628Z,98002.16
2018-01-24T08:43:52.157Z,98006.39
2018-01-24T08:46:19.665Z,98003.29
2018-01-24T08:48:47.196Z,98005.27
2018-01-24T08:51:14.705Z,98012.73
2018-01-24T08:53:42.506Z,98004.14
2018-01-24T08:56:10.055Z,98010.66
2018-01-24T08:58:37.615Z,98009.02
2018-01-24T09:01:05.171Z,98007.80
2018-01-24T09:03:32.678Z,98006.05
2018-01-24T09:06:00.221Z,98008.27
2018-01-24T09:08:27.765Z,98009.14
2018-01-24T09:10:55.305Z,98003.13
2018-01-24T09:13:22.865Z,98010.86
2018-01-24T09:15:50.372Z,98006.64
2018-01-24T09:18:17.924Z,98006.58
2018-01-24T09:20:45.428Z,98010.08
2018-01-24T09:23:12.928Z,98007.13
2018-01-24T09:25:40.455Z,98005.42
2018-01-24T09:28:07.957Z,97997.91
2018-01-24T09:30:35.565Z,97999.25
2018-01-24T09:33:03.087Z,98002.63
2018-01-24T09:35:30.630Z,98001.27
2018-01-24T09:37:59.149Z,98004.84
2018-01-24T09:40:26.668Z,98003.21
2018-01-24T09:42:54.495Z,97999.38
2018-01-24T09:45:22.055Z,98007.07
2018-01-24T09:47:49.616Z,98005.13
2018-01-24T09:50:17.136Z,98005.96
2018-01-24T09:52:44.653Z,98011.67
2018-01-24T09:55:12.188Z,98012.84
2018-01-24T09:57:39.693Z,98015.38
2018-01-24T10:00:07.203Z,98010.50
2018-01-24T10:02:34.764Z,98010.38
2018-01-24T10:05:02.263Z,98006.98
2018-01-24T10:07:29.885Z,98007.38
2018-01-24T10:09:57.383Z,97998.66
2018-01-24T10:12:24.894Z,97996.02
2018-01-24T10:14:52.838Z,97993.78
2018-01-24T10:17:20.341Z,97979.48
2018-01-24T10:19:48.044Z,97984.90
2018-01-24T10:22:15.545Z,97987.16
2018-01-24T10:24:43.060Z,97983.69
2018-01-24T10:27:10.588Z,97981.65
2018-01-24T10:29:38.223Z,97973.56
2018-01-24T10:32:05.964Z,97967.50
2018-01-24T10:34:33.465Z,97960.89
2018-01-24T10:37:01.003Z,97952.09
2018-01-24T10:39:28.563Z,97965.80
2018-01-24T10:41:56.077Z,97969.47
2018-01-24T10:44:23.780Z,97965.14
2018-01-24T10:46:51.285Z,97960.03
2018-01-24T10:49:18.788Z,97955.12
2018-01-24T10:51:46.358Z,97958.15
2018-01-24T10:54:13.913Z,97957.37
2018-01-24T10:56:41.678Z,97943.66
2018-01-24T10:59:09.243Z,97947.72
2018-01-24T11:01:36.740Z,97940.91
2018-01-24T11:04:05.175Z,97930.27
2018-01-24T11:06:32.740Z,97942.22
2018-01-24T11:09:00.499Z,97935.86
2018-01-24T11:11:28.005Z,97931.08
2018-01-24T11:13:55.530Z,97922.76
2018-01-24T11:16:23.057Z,97922.21
2018-01-24T11:18:50.569Z,97914.28
2018-01-24T11:21:18.124Z,97920.47
2018-01-24T11:23:45.648Z,97915.69
2018-01-24T11:26:13.149Z,97912.89
2018-01-24T11:28:40.680Z,97908.72
2018-01-24T11:31:08.224Z,97905.44
2018-01-24T11:33:35.988Z,97900.31
2018-01-24T11:36:03.492Z,97897.72
2018-01-24T11:38:31.001Z,97899.41
2018-01-24T11:40:58.605Z,97894.14
2018-01-24T11:43:26.121Z,97895.38
2018-01-24T11:45:53.669Z,97886.24
2018-01-24T11:48:21.176Z,97884.98
2018-01-24T11:50:48.696Z,97887.05
2018-01-24T11:53:16.222Z,97870.39
2018-01-24T11:55:43.729Z,97878.12
2018-01-24T11:58:11.476Z,97866.80
2018-01-24T12:00:38.982Z,97861.35
2018-01-24T12:03:06.481Z,97865.73
2018-01-24T12:05:34.033Z,97855.24
2018-01-24T12:08:01.611Z,97854.80
2018-01-24T12:10:29.373Z,97853.77
2018-01-24T12:12:56.897Z,97855.13
2018-01-24T12:15:24.400Z,97854.88
2018-01-24T12:17:52.358Z,97849.91
2018-01-24T12:20:19.921Z,97840.83
2018-01-24T12:22:48.104Z,97829.24
2018-01-24T12:25:15.671Z,97827.53
2018-01-24T12:27:43.289Z,97826.82
2018-01-24T12:30:10.768Z,97821.61
2018-01-24T12:32:38.311Z,97809.11
2018-01-24T12:35:05.842Z,97809.23
2018-01-24T12:37:33.345Z,97806.58
2018-01-24T12:40:00.902Z,97801.83
2018-01-24T12:42:28.460Z,97806.58
2018-01-24T12:44:55.965Z,97797.29
2018-01-24T12:47:23.664Z,97790.63
2018-01-24T12:49:51.162Z,97789.80
2018-01-24T12:52:18.698Z,97786.14
2018-01-24T12:54:46.246Z,97788.05
2018-01-24T12:57:13.752Z,97786.45
2018-01-24T12:59:41.579Z,97783.16
2018-01-24T13:02:09.081Z,97779.27
2018-01-24T13:04:36.585Z,97773.42
2018-01-24T13:07:04.170Z,97767.33
2018-01-24T13:09:31.722Z,97761.25
2018-01-24T13:11:59.269Z,97765.61
2018-01-24T13:14:26.775Z,97747.63
2018-01-24T13:16:54.290Z,97742.11
2018-01-24T13:19:21.846Z,97739.30
2018-01-24T13:21:49.407Z,97740.14
2018-01-24T13:24:17.170Z,97734.45
2018-01-24T13:26:44.670Z,97727.92
2018-01-24T13:29:12.699Z,97720.08
2018-01-24T13:31:40.257Z,97716.78
2018-01-24T13:34:07.756Z,97713.95
2018-01-24T13:36:35.388Z,97709.44
2018-01-24T13:39:02.935Z,97703.34
2018-01-24T13:41:30.493Z,97713.40
2018-01-24T13:43:59.008Z,97716.47
2018-01-24T13:46:26.533Z,97709.17
2018-01-24T13:48:54.194Z,97702.41
2018-01-24T13:51:21.697Z,97698.94
2018-01-24T13:53:49.221Z,97703.22
2018-01-24T13:56:17.094Z,97697.59
2018-01-24T13:58:44.601Z,97692.66
2018-01-24T14:01:12.152Z,97695.44
2018-01-24T14:03:39.685Z,97691.03
2018-01-24T14:06:07.210Z,97683.05
2018-01-24T14:08:34.770Z,97681.29
2018-01-24T14:11:02.279Z,97682.09
2018-01-24T14:13:30.095Z,97683.08
2018-01-24T14:15:57.655Z,97677.23
2018-01-24T14:18:25.211Z,97675.54
2018-01-24T14:20:52.744Z,97671.03
2018-01-24T14:23:20.250Z,97660.61
2018-01-24T14:25:47.816Z,97667.78
2018-01-24T14:28:15.347Z,97665.80
2018-01-24T14:30:42.857Z,97651.11
2018-01-24T14:33:10.389Z,97652.30
2018-01-24T14:35:37.919Z,97651.65
2018-01-24T14:38:05.472Z,97644.52
2018-01-24T14:40:33.040Z,97638.17
2018-01-24T14:43:00.598Z,97639.50
2018-01-24T14:45:28.145Z,97637.73
2018-01-24T14:47:55.653Z,97630.83
2018-01-24T14:50:23.355Z,97626.50
2018-01-24T14:52:50.857Z,97626.05
2018-01-24T14:55:18.392Z,97617.30
2018-01-24T14:57:45.952Z,97623.38
2018-01-24T15:00:13.512Z,97618.09
2018-01-24T15:02:41.050Z,97615.92
2018-01-24T15:05:08.552Z,97611.28
2018-01-24T15:07:36.157Z,97606.70
2018-01-24T15:10:03.679Z,97599.04
2018-01-24T15:12:31.185Z,97599.67
2018-01-24T15:14:59.071Z,97594.58
2018-01-24T15:17:26.690Z,97584.73
2018-01-24T15:19:54.171Z,97590.11
2018-01-24T15:22:22.158Z,97581.91
2018-01-24T15:24:49.725Z,97580.20
2018-01-24T15:27:17.686Z,97579.89
2018-01-24T15:29:45.192Z,97582.63
2018-01-24T15:32:12.724Z,97591.22
2018-01-24T15:34:40.260Z,97584.25
2018-01-24T15:37:07.767Z,97594.04
2018-01-24T15:39:35.482Z,97590.57
2018-01-24T15:42:03.040Z,97580.30
2018-01-24T15:44:30.545Z,97581.86
2018-01-24T15:46:58.072Z,97576.67
2018-01-24T15:49:25.614Z,97568.27
2018-01-24T15:51:53.626Z,97561.06
2018-01-24T15:54:21.172Z,97566.44
2018-01-24T15:56:48.702Z,97563.75
2018-01-24T15:59:16.227Z,97555.91
2018-01-24T16:01:43.740Z,97553.23
2018-01-24T16:04:11.300Z,97552.16
2018-01-24T16:06:38.837Z,97552.80
2018-01-24T16:09:06.377Z,97553.02
2018-01-24T16:11:33.904Z,97536.88
2018-01-24T16:14:01.680Z,97543.20
2018-01-24T16:16:29.584Z,97538.91
2018-01-24T16:18:57.101Z,97530.73
2018-01-24T16:21:25.036Z,97527.69
2018-01-24T16:23:52.570Z,97520.94
2018-01-24T16:26:20.231Z,97520.17
2018-01-24T16:28:48.096Z,97517.70
2018-01-24T16:31:15.957Z,97524.23
2018-01-24T16:33:48.592Z,97519.09
2018-01-24T16:36:16.201Z,97516.91
2018-01-24T16:38:43.741Z,97507.88
2018-01-24T16:41:11.532Z,97500.56
2018-01-24T16:43:40.025Z,97501.05
2018-01-24T16:46:07.565Z,97497.81
2018-01-24T16:48:35.894Z,97494.00
2018-01-24T16:51:04.593Z,97487.45
2018-01-24T16:53:32.597Z,97484.94
2018-01-24T16:56:01.087Z,97475.08
2018-01-24T16:58:28.931Z,97470.95
2018-01-24T17:00:56.502Z,97470.83
2018-01-24T17:03:24.062Z,97468.66
2018-01-24T17:05:51.989Z,97465.70
2018-01-24T17:08:19.897Z,97468.40
2018-01-24T17:10:47.795Z,97464.78
2018-01-24T17:13:15.827Z,97467.72
2018-01-24T17:15:43.705Z,97467.69
2018-01-24T17:18:11.509Z,97466.78
2018-01-24T17:20:39.332Z,97471.43
2018-01-24T17:23:07.116Z,97468.30
2018-01-24T17:25:34.909Z,97480.89
2018-01-24T17:28:02.624Z,97477.24
2018-01-24T17:30:30.256Z,97470.38
2018-01-24T17:32:58.151Z,97473.17
2018-01-24T17:35:25.978Z,97477.34
2018-01-24T17:37:53.883Z,97461.88
2018-01-24T17:40:21.653Z,97462.63
2018-01-24T17:42:49.401Z,97461.49
2018-01-24T17:45:17.672Z,97459.36
2018-01-24T17:47:45.334Z,97460.77
2018-01-24T17:50:14.006Z,97465.89
2018-01-24T17:52:41.797Z,97464.36
2018-01-24T17:55:09.665Z,97458.47
2018-01-24T17:57:38.454Z,97457.16
2018-01-24T18:00:06.533Z,97460.17
2018-01-24T18:02:40.212Z,97456.13
2018-01-24T18:05:08.102Z,97459.77
2018-01-24T18:07:38.486Z,97459.34
2018-01-24T18:10:06.337Z,97460.50
2018-01-24T18:12:34.051Z,97460.70
2018-01-24T18:15:03.572Z,97465.08
2018-01-24T18:17:31.622Z,97460.51
2018-01-24T18:19:59.393Z,97463.37
2018-01-24T18:22:27.166Z,97460.43
2018-01-24T18:24:55.120Z,97455.89
2018-01-24T18:27:23.434Z,97457.48
2018-01-24T18:29:51.669Z,97454.57
2018-01-24T18:32:19.643Z,97451.34
2018-01-24T18:34:47.835Z,97447.67
2018-01-24T18:37:16.826Z,97450.89
2018-01-24T18:39:44.689Z,97445.41
2018-01-24T18:42:13.175Z,97452.50
2018-01-24T18:44:41.144Z,97451.15
2018-01-24T18:47:08.909Z,97439.70
2018-01-24T18:49:37.163Z,97431.83
2018-01-24T18:52:05.149Z,97425.34
2018-01-24T18:54:33.308Z,97441.53
2018-01-24T18:57:01.185Z,97455.35
2018-01-24T18:59:30.269Z,97453.69
2018-01-24T19:01:58.154Z,97455.26
2018-01-24T19:04:26.323Z,97457.03
2018-01-24T19:06:54.787Z,97453.72
2018-01-24T19:09:22.552Z,97454.63
2018-01-24T19:11:50.417Z,97459.91
2018-01-24T19:14:18.303Z,97457.52
2018-01-24T19:16:46.251Z,97464.53
2018-01-24T19:19:14.119Z,97455.09
2018-01-24T19:21:41.894Z,97451.97
2018-01-24T19:24:10.823Z,97452.03
2018-01-24T19:26:38.742Z,97446.08
2018-01-24T19:29:06.529Z,97436.98
2018-01-24T19:31:35.610Z,97433.41
2018-01-24T19:34:04.312Z,97434.00
2018-01-24T19:36:32.254Z,97429.27
2018-01-24T19:39:00.139Z,97426.52
2018-01-24T19:41:27.907Z,97429.66
2018-01-24T19:43:55.956Z,97425.27
2018-01-24T19:46:23.914Z,97426.50
2018-01-24T19:48:51.792Z,97423.70
2018-01-24T19:51:19.863Z,97428.85
2018-01-24T19:53:48.129Z,97423.47
2018-01-24T19:56:16.487Z,97429.00
2018-01-24T19:58:44.294Z,97421.87
2018-01-24T20:01:12.254Z,97431.13
2018-01-24T20:03:40.026Z,97434.18
2018-01-24T20:06:07.895Z,97428.14
2018-01-24T20:08:36.259Z,97423.19
2018-01-24T20:11:04.572Z,97423.98
2018-01-24T20:13:32.422Z,97425.92
2018-01-24T20:16:00.386Z,97428.20
2018-01-24T20:18:28.338Z,97429.83
2018-01-24T20:20:56.819Z,97426.70
2018-01-24T20:23:24.669Z,97431.39
2018-01-24T20:25:52.945Z,97438.98
2018-01-24T20:28:21.234Z,97430.30
2018-01-24T20:30:49.069Z,97430.80
2018-01-24T20:33:17.087Z,97429.22
2018-01-24T20:35:45.328Z,97440.86
2018-01-24T20:38:13.123Z,97437.74
2018-01-24T20:40:40.994Z,97432.54
2018-01-24T20:43:08.747Z,97435.91
2018-01-24T20:45:36.623Z,97433.02
2018-01-24T20:48:04.579Z,97430.09
2018-01-24T20:50:32.352Z,97429.66
2018-01-24T20:53:00.214Z,97432.87
2018-01-24T20:55:28.179Z,97435.22
2018-01-24T20:57:56.212Z,97426.72
2018-01-24T21:00:24.627Z,97430.13
2018-01-24T21:02:52.408Z,97430.84
2018-01-24T21:05:20.382Z,97440.50
2018-01-24T21:07:48.124Z,97435.41
2018-01-24T21:10:16.310Z,97442.98
2018-01-24T21:12:44.997Z,97434.68
2018-01-24T21:15:12.858Z,97431.42
2018-01-24T21:17:40.729Z,97440.31
2018-01-24T21:20:08.478Z,97432.77
2018-01-24T21:22:36.448Z,97427.40
2018-01-24T21:25:04.364Z,97434.23
2018-01-24T21:27:32.180Z,97427.94
2018-01-24T21:30:11.737Z,97437.90
2018-01-24T21:32:51.372Z,97430.76
2018-01-24T21:35:31.005Z,97434.91
2018-01-24T21:37:59.900Z,97428.58
2018-01-24T21:40:28.429Z,97435.36
2018-01-24T21:42:57.748Z,97438.44
2018-01-24T21:45:25.646Z,97438.19
2018-01-24T21:47:53.204Z,97435.27
2018-01-24T21:50:20.763Z,97436.65
2018-01-24T21:52:48.732Z,97440.29
2018-01-24T21:55:16.292Z,97440.66
2018-01-24T21:57:43.911Z,97446.03
2018-01-24T22:00:11.481Z,97444.54
2018-01-24T22:02:39.010Z,97444.54
2018-01-24T22:05:06.709Z,97442.19
2018-01-24T22:07:34.209Z,97438.59
2018-01-24T22:10:01.751Z,97436.37
2018-01-24T22:12:29.308Z,97440.27
2018-01-24T22:14:56.808Z,97437.09
2018-01-24T22:17:24.501Z,97437.06
2018-01-24T22:19:52.012Z,97441.12
2018-01-24T22:22:19.524Z,97436.30
2018-01-24T22:24:47.055Z,97436.17
2018-01-24T22:27:14.565Z,97429.02
2018-01-24T22:29:42.266Z,97428.51
2018-01-24T22:32:09.862Z,97430.61
2018-01-24T22:34:37.372Z,97435.38
2018-01-24T22:37:04.897Z,97437.04
2018-01-24T22:39:32.413Z,97428.39
2018-01-24T22:42:00.101Z,97436.61
2018-01-24T22:44:27.609Z,97439.28
2018-01-24T22:46:55.139Z,97444.69
2018-01-24T22:49:22.672Z,97444.46
2018-01-24T22:51:50.181Z,97452.33
2018-01-24T22:54:17.714Z,97444.29
2018-01-24T22:56:45.213Z,97442.63
2018-01-24T22:59:12.931Z,97439.39
2018-01-24T23:01:40.438Z,97442.67
2018-01-24T23:04:07.949Z,97443.06
2018-01-24T23:06:35.480Z,97445.54
2018-01-24T23:09:03.056Z,97446.75
2018-01-24T23:11:30.625Z,97452.00
2018-01-24T23:13:58.124Z,97446.27
2018-01-24T23:16:25.640Z,97445.62
2018-01-24T23:18:53.199Z,97444.93
2018-01-24T23:21:20.704Z,97436.28
2018-01-24T23:23:48.587Z,97439.01
2018-01-24T23:26:16.072Z,97438.89
2018-01-24T23:28:43.589Z,97438.02
2018-01-24T23:31:11.122Z,97448.53
2018-01-24T23:33:38.635Z,97440.91
2018-01-24T23:36:06.524Z,97443.02
2018-01-24T23:38:34.068Z,97444.70
2018-01-24T23:41:01.792Z,97433.67
2018-01-24T23:43:29.337Z,97434.26
2018-01-24T23:45:56.863Z,97435.69
2018-01-24T23:48:24.433Z,97435.48
2018-01-24T23:50:51.933Z,97436.77
2018-01-24T23:53:19.523Z,97425.80
2018-01-24T23:55:47.100Z,97437.76
2018-01-24T23:58:14.604Z,97431.89
